createdAt,value
2019-06-07T00:00:47.646Z,7.23
2019-06-07T00:03:27.540Z,5.20
2019-06-07T00:05:47.392Z,4.40
2019-06-07T00:08:24.836Z,5.37
2019-06-07T00:10:46.891Z,3.80
2019-06-07T00:13:18.765Z,4.47
2019-06-07T00:15:46.401Z,3.93
2019-06-07T00:18:20.970Z,4.57
2019-06-07T00:20:45.909Z,4.67
2019-06-07T00:23:19.686Z,4.93
2019-06-07T00:25:45.396Z,4.13
2019-06-07T00:28:17.388Z,4.50
2019-06-07T00:30:51.719Z,4.47
2019-06-07T00:33:18.773Z,4.17
2019-06-07T00:38:21.958Z,4.37
2019-06-07T00:40:51.103Z,4.30
2019-06-07T00:43:26.103Z,4.70
2019-06-07T00:45:50.937Z,5.43
2019-06-07T00:48:31.330Z,4.50
2019-06-07T00:50:50.520Z,4.13
2019-06-07T00:53:28.799Z,4.17
2019-06-07T00:55:50.049Z,4.27
2019-06-07T00:58:21.847Z,4.50
2019-06-07T01:00:49.666Z,4.37
2019-06-07T01:03:23.410Z,4.27
2019-06-07T01:05:49.067Z,4.30
2019-06-07T01:08:20.012Z,3.80
2019-06-07T01:10:53.782Z,4.70
2019-06-07T01:13:22.328Z,4.40
2019-06-07T01:15:50.180Z,3.87
2019-06-07T01:18:37.329Z,4.30
2019-06-07T01:20:49.797Z,4.27
2019-06-07T01:24:20.101Z,4.47
2019-06-07T01:25:49.497Z,4.50
2019-06-07T01:28:21.439Z,4.57
2019-06-07T01:30:49.061Z,4.70
2019-06-07T01:33:18.306Z,3.90
2019-06-07T01:35:47.500Z,4.03
2019-06-07T01:38:17.212Z,4.07
2019-06-07T01:40:47.072Z,4.00
2019-06-07T01:43:17.057Z,4.07
2019-06-07T01:45:45.997Z,4.10
2019-06-07T01:48:17.675Z,4.33
2019-06-07T01:50:45.737Z,4.40
2019-06-07T01:53:14.618Z,4.47
2019-06-07T01:55:43.570Z,4.27
2019-06-07T01:58:12.475Z,3.90
2019-06-07T02:00:41.582Z,4.10
2019-06-07T02:03:10.585Z,4.70
2019-06-07T02:05:39.676Z,4.67
2019-06-07T02:08:08.684Z,4.43
2019-06-07T02:10:37.635Z,4.27
2019-06-07T02:13:06.578Z,4.47
2019-06-07T02:15:36.547Z,4.40
2019-06-07T02:18:05.976Z,4.30
2019-06-07T02:20:35.150Z,4.30
2019-06-07T02:23:04.326Z,4.83
2019-06-07T02:25:43.646Z,4.80
2019-06-07T02:28:26.610Z,4.67
2019-06-07T02:30:44.220Z,4.37
2019-06-07T02:33:05.546Z,4.83
2019-06-07T02:35:40.453Z,4.70
2019-06-07T02:38:05.420Z,4.57
2019-06-07T02:40:37.330Z,4.13
2019-06-07T02:43:05.173Z,4.90
2019-06-07T02:45:42.141Z,4.53
2019-06-07T02:48:05.118Z,4.33
2019-06-07T02:50:38.401Z,4.40
2019-06-07T02:53:04.916Z,4.10
2019-06-07T02:55:57.326Z,4.50
2019-06-07T02:58:04.479Z,4.90
2019-06-07T03:01:06.958Z,5.10
2019-06-07T03:03:19.021Z,4.53
2019-06-07T03:05:48.343Z,4.67
2019-06-07T03:08:19.052Z,4.33
2019-06-07T03:10:49.908Z,4.20
2019-06-07T03:13:20.347Z,4.90
2019-06-07T03:15:51.031Z,4.73
2019-06-07T03:18:41.531Z,4.53
2019-06-07T03:21:13.555Z,4.70
2019-06-07T03:23:44.335Z,4.83
2019-06-07T03:26:14.360Z,4.57
2019-06-07T03:28:43.369Z,5.00
2019-06-07T03:31:12.318Z,4.47
2019-06-07T03:33:45.075Z,4.63
2019-06-07T03:36:23.525Z,4.60
2019-06-07T03:38:43.348Z,4.77
2019-06-07T03:41:12.391Z,4.37
2019-06-07T03:43:41.303Z,4.77
2019-06-07T03:46:10.353Z,5.20
2019-06-07T03:48:41.396Z,5.07
2019-06-07T03:51:24.187Z,5.50
2019-06-07T03:53:41.166Z,4.93
2019-06-07T03:56:10.867Z,5.50
2019-06-07T03:58:50.177Z,4.73
2019-06-07T04:01:17.670Z,5.53
2019-06-07T04:03:51.705Z,5.20
2019-06-07T04:06:17.325Z,5.57
2019-06-07T04:08:46.175Z,5.10
2019-06-07T04:11:15.140Z,5.60
2019-06-07T04:13:44.013Z,5.30
2019-06-07T04:16:12.837Z,5.87
2019-06-07T04:18:42.540Z,5.73
2019-06-07T04:21:11.772Z,5.97
2019-06-07T04:23:45.522Z,6.70
2019-06-07T04:26:11.636Z,6.60
2019-06-07T04:29:31.129Z,6.60
2019-06-07T04:31:11.219Z,7.07
2019-06-07T04:33:43.627Z,7.13
2019-06-07T04:36:12.009Z,6.73
2019-06-07T04:38:42.940Z,6.57
2019-06-07T04:41:13.408Z,7.23
2019-06-07T04:43:43.075Z,7.07
2019-06-07T04:46:12.951Z,7.13
2019-06-07T04:48:43.841Z,6.93
2019-06-07T04:51:15.241Z,6.80
2019-06-07T04:53:44.427Z,7.20
2019-06-07T04:56:13.560Z,6.77
2019-06-07T04:58:43.248Z,7.67
2019-06-07T05:01:26.762Z,7.37
2019-06-07T05:03:44.220Z,7.43
2019-06-07T05:06:13.687Z,7.37
2019-06-07T05:08:43.939Z,8.07
2019-06-07T05:11:13.151Z,8.40
2019-06-07T05:13:43.803Z,9.70
2019-06-07T05:16:13.078Z,9.30
2019-06-07T05:18:43.222Z,10.50
2019-06-07T05:21:13.758Z,11.50
2019-06-07T05:24:05.804Z,10.40
2019-06-07T05:26:13.384Z,10.83
2019-06-07T05:28:43.018Z,10.13
2019-06-07T05:31:12.547Z,10.87
2019-06-07T05:33:43.583Z,11.53
2019-06-07T05:36:12.467Z,11.33
2019-06-07T05:38:44.723Z,11.00
2019-06-07T05:41:12.526Z,11.20
2019-06-07T05:43:49.475Z,12.37
2019-06-07T05:46:12.240Z,12.33
2019-06-07T05:48:42.432Z,12.73
2019-06-07T05:51:12.090Z,10.57
2019-06-07T05:53:43.156Z,12.30
2019-06-07T05:56:13.635Z,12.83
2019-06-07T05:58:44.698Z,14.10
2019-06-07T06:01:41.440Z,12.87
2019-06-07T06:03:48.067Z,14.57
2019-06-07T06:06:16.152Z,13.00
2019-06-07T06:08:47.770Z,14.70
2019-06-07T06:11:16.736Z,13.47
2019-06-07T06:14:04.936Z,14.20
2019-06-07T06:16:17.535Z,12.83
2019-06-07T06:18:48.827Z,13.43
2019-06-07T06:21:20.120Z,13.03
2019-06-07T06:23:52.162Z,13.43
2019-06-07T06:26:20.867Z,13.37
2019-06-07T06:28:49.958Z,12.20
2019-06-07T06:31:18.930Z,13.13
2019-06-07T06:33:49.849Z,12.90
2019-06-07T06:36:18.819Z,13.37
2019-06-07T06:38:49.720Z,11.80
2019-06-07T06:41:18.799Z,11.03
2019-06-07T06:43:52.144Z,11.70
2019-06-07T06:46:37.558Z,10.87
2019-06-07T06:48:54.681Z,10.90
2019-06-07T06:51:20.308Z,11.07
2019-06-07T06:53:52.449Z,9.97
2019-06-07T06:56:19.944Z,10.23
2019-06-07T06:59:27.232Z,9.80
2019-06-07T07:01:19.608Z,8.93
2019-06-07T07:04:06.913Z,9.33
2019-06-07T07:06:26.469Z,8.70
2019-06-07T07:08:53.415Z,9.30
2019-06-07T07:11:23.437Z,8.97
2019-06-07T07:13:56.311Z,8.63
2019-06-07T07:16:23.773Z,8.27
2019-06-07T07:18:54.607Z,8.40
2019-06-07T07:21:23.403Z,7.93
2019-06-07T07:24:19.550Z,8.97
2019-06-07T07:26:23.033Z,6.83
2019-06-07T07:28:57.263Z,7.30
2019-06-07T07:31:22.907Z,6.33
2019-06-07T07:36:38.079Z,5.97
2019-06-07T07:39:00.511Z,6.60
2019-06-07T07:41:23.637Z,5.73
2019-06-07T07:44:04.336Z,5.83
2019-06-07T07:46:29.588Z,5.87
2019-06-07T07:48:55.799Z,5.80
2019-06-07T07:51:24.547Z,4.83
2019-06-07T07:54:09.106Z,5.03
2019-06-07T07:56:24.213Z,4.40
2019-06-07T07:59:00.065Z,4.50
2019-06-07T08:01:23.678Z,4.47
2019-06-07T08:03:54.890Z,3.70
2019-06-07T08:06:23.677Z,4.10
2019-06-07T08:08:55.784Z,3.93
2019-06-07T08:11:23.263Z,3.83
2019-06-07T08:13:52.978Z,4.10
2019-06-07T08:16:23.183Z,3.30
2019-06-07T08:18:56.022Z,3.50
2019-06-07T08:21:26.690Z,3.08
2019-06-07T08:23:58.261Z,2.50
2019-06-07T08:26:31.735Z,2.67
2019-06-07T08:29:02.939Z,2.55
2019-06-07T08:31:31.631Z,2.35
2019-06-07T08:34:00.908Z,2.40
2019-06-07T08:36:41.210Z,2.55
2019-06-07T08:39:07.328Z,2.40
2019-06-07T08:41:31.350Z,2.40
2019-06-07T08:44:08.594Z,2.30
2019-06-07T08:46:30.881Z,2.35
2019-06-07T08:49:04.270Z,2.50
2019-06-07T08:51:30.613Z,2.40
2019-06-07T08:54:15.985Z,2.45
2019-06-07T08:56:30.300Z,2.70
2019-06-07T08:59:03.162Z,2.50
2019-06-07T09:01:29.820Z,2.60
2019-06-07T09:04:02.630Z,2.25
2019-06-07T09:09:01.985Z,3.25
2019-06-07T09:11:30.751Z,2.55
2019-06-07T09:14:02.933Z,2.47
2019-06-07T09:16:30.378Z,2.50
2019-06-07T09:19:03.934Z,2.67
2019-06-07T09:21:30.316Z,2.80
2019-06-07T09:24:03.840Z,2.80
2019-06-07T09:26:30.018Z,3.03
2019-06-07T09:29:03.283Z,2.90
2019-06-07T09:31:51.079Z,2.70
2019-06-07T09:34:10.291Z,2.63
2019-06-07T09:36:31.746Z,2.80
2019-06-07T09:39:06.427Z,2.53
2019-06-07T09:41:46.904Z,3.57
2019-06-07T09:44:20.394Z,2.67
2019-06-07T09:46:33.644Z,2.43
2019-06-07T09:49:18.918Z,2.87
2019-06-07T09:51:33.151Z,2.43
2019-06-07T09:54:08.146Z,2.47
2019-06-07T09:56:32.967Z,2.30
2019-06-07T09:59:06.059Z,2.50
2019-06-07T10:01:33.020Z,2.77
2019-06-07T10:04:05.903Z,2.93
2019-06-07T10:06:32.588Z,2.80
2019-06-07T10:10:06.664Z,2.73
2019-06-07T10:11:32.089Z,3.00
2019-06-07T10:14:00.980Z,2.67
2019-06-07T10:16:32.942Z,3.30
2019-06-07T10:19:01.557Z,2.47
2019-06-07T10:21:31.062Z,2.83
2019-06-07T10:24:01.200Z,3.30
2019-06-07T10:26:30.291Z,2.83
2019-06-07T10:28:59.706Z,3.17
2019-06-07T10:31:28.662Z,3.67
2019-06-07T10:33:58.585Z,4.20
2019-06-07T10:36:27.831Z,3.57
2019-06-07T10:38:56.815Z,2.97
2019-06-07T10:41:25.799Z,3.13
2019-06-07T10:43:54.816Z,3.10
2019-06-07T10:46:24.901Z,3.60
2019-06-07T10:48:53.961Z,10.37
2019-06-07T10:51:23.084Z,2.80
2019-06-07T10:53:52.098Z,2.87
2019-06-07T10:56:21.397Z,3.07
2019-06-07T10:58:50.855Z,2.70
2019-06-07T11:01:20.096Z,2.90
2019-06-07T11:03:48.921Z,3.07
2019-06-07T11:06:17.878Z,2.70
2019-06-07T11:08:47.281Z,2.50
2019-06-07T11:11:16.255Z,2.83
2019-06-07T11:13:45.148Z,2.90
2019-06-07T11:16:15.669Z,3.20
2019-06-07T11:18:44.745Z,2.60
2019-06-07T11:21:14.324Z,2.80
2019-06-07T11:23:43.330Z,2.50
2019-06-07T11:26:12.533Z,2.60
2019-06-07T11:28:41.449Z,2.60
2019-06-07T11:31:11.169Z,2.53
2019-06-07T11:33:40.533Z,2.13
2019-06-07T11:36:10.668Z,2.03
2019-06-07T11:38:39.738Z,2.50
2019-06-07T11:41:09.394Z,2.77
2019-06-07T11:43:38.656Z,2.20
2019-06-07T11:46:08.776Z,2.20
2019-06-07T11:48:38.245Z,2.07
2019-06-07T11:51:08.472Z,1.90
2019-06-07T11:53:37.501Z,2.20
2019-06-07T11:56:07.765Z,2.10
2019-06-07T11:58:36.817Z,2.70
2019-06-07T12:01:07.439Z,1.90
2019-06-07T12:03:36.492Z,2.13
2019-06-07T12:06:05.491Z,2.20
2019-06-07T12:08:34.294Z,2.67
2019-06-07T12:11:03.297Z,2.13
2019-06-07T12:13:32.111Z,2.60
2019-06-07T12:16:01.540Z,2.30
2019-06-07T12:18:30.498Z,2.00
2019-06-07T12:20:59.765Z,2.10
2019-06-07T12:23:28.652Z,2.33
2019-06-07T12:25:57.761Z,2.43
2019-06-07T12:28:26.803Z,1.90
2019-06-07T12:30:55.719Z,2.27
2019-06-07T12:33:24.788Z,1.80
2019-06-07T12:35:53.607Z,2.00
2019-06-07T12:38:23.167Z,1.77
2019-06-07T12:40:57.453Z,1.83
2019-06-07T12:43:23.258Z,2.97
2019-06-07T12:45:52.356Z,1.97
2019-06-07T12:48:25.811Z,2.20
2019-06-07T12:50:52.114Z,2.00
2019-06-07T12:53:25.843Z,2.20
2019-06-07T12:55:51.739Z,2.00
2019-06-07T12:58:25.871Z,1.80
2019-06-07T13:00:51.351Z,2.45
2019-06-07T13:03:20.934Z,2.07
2019-06-07T13:05:50.052Z,2.90
2019-06-07T13:08:19.791Z,2.60
2019-06-07T13:10:48.724Z,2.53
2019-06-07T13:13:18.456Z,1.97
2019-06-07T13:15:48.594Z,2.07
2019-06-07T13:18:19.779Z,1.87
2019-06-07T13:20:48.650Z,1.90
2019-06-07T13:23:19.185Z,1.87
2019-06-07T13:25:48.241Z,2.03
2019-06-07T13:28:18.842Z,1.95
2019-06-07T13:30:47.854Z,2.00
2019-06-07T13:33:18.887Z,1.83
2019-06-07T13:35:47.860Z,2.00
2019-06-07T13:38:25.900Z,2.10
2019-06-07T13:40:56.291Z,3.23
2019-06-07T13:43:25.713Z,22.10
2019-06-07T13:45:54.892Z,11.13
2019-06-07T13:48:25.253Z,2.13
2019-06-07T13:50:54.327Z,1.90
2019-06-07T13:53:24.933Z,1.90
2019-06-07T13:55:53.954Z,2.03
2019-06-07T13:58:24.141Z,1.93
2019-06-07T14:00:53.288Z,1.97
2019-06-07T14:03:26.795Z,1.90
2019-06-07T14:05:53.282Z,1.97
2019-06-07T14:08:23.286Z,1.90
2019-06-07T14:10:52.348Z,2.17
2019-06-07T14:13:21.551Z,1.80
2019-06-07T14:15:50.657Z,2.03
2019-06-07T14:18:20.384Z,1.83
2019-06-07T14:20:49.644Z,3.10
2019-06-07T14:23:18.681Z,2.63
2019-06-07T14:25:50.252Z,2.20
2019-06-07T14:28:19.226Z,1.80
2019-06-07T14:30:48.268Z,2.23
2019-06-07T14:33:17.451Z,1.90
2019-06-07T14:35:46.273Z,1.90
2019-06-07T14:38:15.277Z,2.13
2019-06-07T14:40:44.280Z,1.80
2019-06-07T14:43:13.251Z,2.00
2019-06-07T14:45:42.072Z,2.08
2019-06-07T14:48:11.409Z,2.40
2019-06-07T14:50:40.352Z,2.47
2019-06-07T14:53:09.413Z,2.47
2019-06-07T14:55:38.455Z,2.73
2019-06-07T14:58:07.439Z,3.10
2019-06-07T15:00:41.392Z,2.20
2019-06-07T15:03:10.815Z,2.37
2019-06-07T15:05:40.670Z,1.97
2019-06-07T15:08:09.831Z,2.67
2019-06-07T15:10:39.237Z,2.63
2019-06-07T15:13:08.864Z,2.47
2019-06-07T15:15:38.978Z,2.03
2019-06-07T15:18:08.105Z,2.30
2019-06-07T15:20:38.368Z,2.80
2019-06-07T15:23:07.765Z,1.77
2019-06-07T15:25:36.585Z,5.13
2019-06-07T15:28:05.481Z,3.17
2019-06-07T15:30:35.720Z,2.30
2019-06-07T15:33:04.819Z,2.53
2019-06-07T15:35:36.999Z,2.60
2019-06-07T15:38:04.583Z,3.27
2019-06-07T15:40:35.113Z,2.77
2019-06-07T15:43:04.514Z,2.60
2019-06-07T15:45:33.806Z,3.07
2019-06-07T15:48:02.874Z,2.10
2019-06-07T15:50:34.314Z,2.20
2019-06-07T15:53:05.685Z,3.07
2019-06-07T15:55:37.651Z,3.47
2019-06-07T15:58:05.542Z,3.73
2019-06-07T16:00:35.447Z,3.30
2019-06-07T16:03:04.695Z,4.07
2019-06-07T16:05:34.282Z,3.47
2019-06-07T16:08:03.414Z,3.90
2019-06-07T16:10:32.645Z,3.40
2019-06-07T16:13:01.736Z,2.97
2019-06-07T16:15:30.766Z,2.53
2019-06-07T16:17:59.673Z,1.50
2019-06-07T16:20:28.654Z,1.60
2019-06-07T16:22:57.623Z,1.80
2019-06-07T16:25:26.712Z,1.47
2019-06-07T16:27:55.614Z,1.83
2019-06-07T16:30:24.742Z,1.60
2019-06-07T16:32:53.670Z,1.30
2019-06-07T16:35:22.694Z,4.00
2019-06-07T16:37:52.661Z,1.43
2019-06-07T16:40:21.949Z,0.80
2019-06-07T16:42:50.857Z,0.60
2019-06-07T16:45:21.053Z,1.27
2019-06-07T16:47:49.962Z,1.07
2019-06-07T16:50:19.128Z,1.00
2019-06-07T16:52:48.619Z,0.77
2019-06-07T16:55:18.651Z,2.53
2019-06-07T16:57:49.211Z,0.70
2019-06-07T17:00:19.409Z,0.80
2019-06-07T17:02:48.870Z,0.90
2019-06-07T17:05:19.217Z,0.70
2019-06-07T17:07:48.933Z,1.43
2019-06-07T17:10:18.424Z,1.17
2019-06-07T17:12:48.792Z,1.20
2019-06-07T17:15:18.411Z,0.83
2019-06-07T17:17:47.297Z,6.07
2019-06-07T17:20:16.982Z,1.10
2019-06-07T17:22:47.341Z,1.13
2019-06-07T17:25:19.212Z,1.70
2019-06-07T17:27:48.303Z,1.10
2019-06-07T17:30:17.774Z,1.13
2019-06-07T17:32:54.401Z,0.90
2019-06-07T17:35:17.556Z,1.53
2019-06-07T17:37:49.157Z,1.23
2019-06-07T17:40:18.707Z,1.00
2019-06-07T17:42:48.967Z,1.87
2019-06-07T17:45:18.913Z,1.87
2019-06-07T17:47:47.882Z,0.90
2019-06-07T17:50:17.154Z,0.70
2019-06-07T17:52:46.089Z,1.10
2019-06-07T17:55:15.902Z,1.00
2019-06-07T17:57:44.822Z,2.03
2019-06-07T18:00:28.205Z,1.23
2019-06-07T18:02:46.788Z,1.10
2019-06-07T18:05:16.165Z,1.00
2019-06-07T18:07:47.761Z,2.10
2019-06-07T18:10:26.907Z,0.93
2019-06-07T18:12:55.887Z,2.00
2019-06-07T18:15:36.635Z,1.10
2019-06-07T18:18:05.978Z,1.70
2019-06-07T18:20:34.994Z,1.10
2019-06-07T18:23:03.953Z,2.00
2019-06-07T18:25:32.966Z,2.60
2019-06-07T18:28:02.023Z,1.30
2019-06-07T18:30:31.014Z,1.20
2019-06-07T18:33:00.043Z,1.87
2019-06-07T18:35:28.982Z,1.13
2019-06-07T18:37:59.297Z,2.00
2019-06-07T18:40:28.442Z,1.90
2019-06-07T18:42:57.698Z,1.50
2019-06-07T18:45:26.582Z,1.13
2019-06-07T18:47:55.960Z,1.27
2019-06-07T18:50:25.050Z,1.30
2019-06-07T18:52:54.883Z,1.00
2019-06-07T18:55:23.933Z,3.57
2019-06-07T18:57:54.312Z,2.07
2019-06-07T19:00:24.565Z,0.77
2019-06-07T19:02:54.078Z,0.90
2019-06-07T19:05:23.284Z,1.27
2019-06-07T19:07:52.560Z,1.57
2019-06-07T19:10:23.833Z,1.10
2019-06-07T19:12:55.238Z,0.90
2019-06-07T19:15:24.630Z,1.77
2019-06-07T19:17:54.119Z,2.03
2019-06-07T19:20:23.455Z,1.57
2019-06-07T19:22:52.526Z,3.10
2019-06-07T19:25:21.720Z,1.80
2019-06-07T19:27:54.975Z,1.90
2019-06-07T19:30:24.680Z,2.20
2019-06-07T19:32:54.982Z,2.97
2019-06-07T19:35:24.306Z,2.23
2019-06-07T19:37:53.773Z,6.23
2019-06-07T19:40:23.519Z,3.17
2019-06-07T19:42:52.501Z,1.23
2019-06-07T19:45:30.164Z,2.90
2019-06-07T19:47:52.495Z,5.10
2019-06-07T19:50:22.143Z,3.23
2019-06-07T19:52:53.006Z,7.20
2019-06-07T19:55:22.178Z,1.30
2019-06-07T19:57:51.250Z,6.17
2019-06-07T20:00:20.589Z,3.23
2019-06-07T20:02:49.837Z,1.70
2019-06-07T20:05:20.470Z,2.33
2019-06-07T20:07:54.457Z,6.63
2019-06-07T20:10:23.893Z,2.87
2019-06-07T20:12:52.871Z,3.20
2019-06-07T20:15:29.055Z,2.10
2019-06-07T20:17:55.124Z,10.03
2019-06-07T20:20:24.152Z,2.40
2019-06-07T20:22:53.244Z,3.80
2019-06-07T20:25:25.108Z,2.77
2019-06-07T20:27:54.188Z,5.93
2019-06-07T20:30:23.684Z,2.10
2019-06-07T20:32:52.816Z,4.37
2019-06-07T20:35:21.875Z,5.93
2019-06-07T20:37:50.820Z,3.80
2019-06-07T20:40:24.730Z,1.90
2019-06-07T20:42:50.528Z,10.20
2019-06-07T20:45:32.554Z,12.87
2019-06-07T20:47:50.759Z,2.47
2019-06-07T20:50:19.940Z,4.60
2019-06-07T20:52:48.955Z,6.67
2019-06-07T20:55:18.045Z,3.80
2019-06-07T20:57:47.149Z,3.47
2019-06-07T21:00:22.036Z,5.73
2019-06-07T21:02:52.959Z,5.63
2019-06-07T21:05:22.078Z,5.90
2019-06-07T21:07:50.983Z,3.43
2019-06-07T21:10:20.148Z,7.80
2019-06-07T21:12:49.549Z,3.37
2019-06-07T21:15:18.608Z,4.50
2019-06-07T21:17:47.668Z,8.50
2019-06-07T21:20:16.738Z,3.40
2019-06-07T21:22:47.147Z,4.50
2019-06-07T21:25:16.813Z,3.50
2019-06-07T21:27:50.717Z,4.20
2019-06-07T21:30:21.174Z,5.47
2019-06-07T21:32:50.285Z,2.07
2019-06-07T21:35:19.520Z,2.23
2019-06-07T21:37:50.024Z,5.50
2019-06-07T21:40:20.048Z,1.13
2019-06-07T21:42:49.171Z,3.97
2019-06-07T21:45:18.263Z,4.07
2019-06-07T21:47:47.300Z,2.80
2019-06-07T21:50:16.573Z,6.47
2019-06-07T21:52:46.325Z,2.67
2019-06-07T21:55:16.587Z,1.27
2019-06-07T21:57:46.692Z,1.00
2019-06-07T22:00:22.957Z,1.20
2019-06-07T22:02:52.054Z,1.93
2019-06-07T22:05:21.674Z,0.90
2019-06-07T22:07:50.695Z,3.00
2019-06-07T22:10:20.283Z,3.17
2019-06-07T22:12:49.922Z,1.00
2019-06-07T22:15:32.837Z,0.67
2019-06-07T22:17:50.136Z,0.80
2019-06-07T22:20:19.220Z,2.30
2019-06-07T22:22:48.463Z,2.10
2019-06-07T22:25:17.605Z,1.20
2019-06-07T22:27:48.260Z,1.40
2019-06-07T22:30:19.317Z,2.23
2019-06-07T22:32:48.787Z,6.47
2019-06-07T22:35:19.389Z,1.10
2019-06-07T22:37:48.583Z,0.90
2019-06-07T22:40:18.661Z,0.87
2019-06-07T22:42:47.788Z,1.60
2019-06-07T22:45:16.753Z,0.80
2019-06-07T22:47:47.477Z,0.97
2019-06-07T22:50:16.773Z,1.10
2019-06-07T22:52:45.831Z,1.73
2019-06-07T22:55:15.880Z,2.20
2019-06-07T22:57:56.499Z,0.80
2019-06-07T23:00:26.782Z,1.00
2019-06-07T23:02:56.632Z,0.90
2019-06-07T23:05:25.670Z,0.97
2019-06-07T23:07:54.774Z,1.00
2019-06-07T23:10:24.139Z,0.77
2019-06-07T23:12:55.025Z,1.20
2019-06-07T23:15:25.774Z,0.90
2019-06-07T23:18:07.747Z,1.20
2019-06-07T23:20:37.199Z,5.97
2019-06-07T23:23:06.470Z,0.70
2019-06-07T23:25:40.746Z,1.17
2019-06-07T23:28:10.428Z,1.10
2019-06-07T23:30:39.571Z,1.43
2019-06-07T23:33:08.639Z,1.20
2019-06-07T23:35:39.054Z,1.10
2019-06-07T23:38:08.609Z,0.90
2019-06-07T23:40:38.807Z,0.60
2019-06-07T23:43:08.221Z,0.70
2019-06-07T23:45:37.526Z,0.83
2019-06-07T23:48:06.664Z,0.70
2019-06-07T23:50:36.252Z,0.83
2019-06-07T23:53:05.266Z,0.83
2019-06-07T23:55:34.322Z,0.80
2019-06-07T23:58:04.085Z,0.87
